sensor_id;sensor_type;location;lat;lon;timestamp;P1;durP1;ratioP1;P2;durP2;ratioP2
78871;SDS011;68247;43.514;1.502;2023-06-04T00:01:05;9.30;;;4.57;;
78871;SDS011;68247;43.514;1.502;2023-06-04T00:03:31;8.50;;;4.50;;
78871;SDS011;68247;43.514;1.502;2023-06-04T00:05:57;7.00;;;4.33;;
78871;SDS011;68247;43.514;1.502;2023-06-04T00:08:22;7.93;;;4.50;;
78871;SDS011;68247;43.514;1.502;2023-06-04T00:10:48;9.03;;;4.60;;
78871;SDS011;68247;43.514;1.502;2023-06-04T00:13:13;6.80;;;4.50;;
78871;SDS011;68247;43.514;1.502;2023-06-04T00:15:39;6.65;;;4.13;;
78871;SDS011;68247;43.514;1.502;2023-06-04T00:18:05;8.60;;;4.43;;
78871;SDS011;68247;43.514;1.502;2023-06-04T00:20:30;8.52;;;4.60;;
78871;SDS011;68247;43.514;1.502;2023-06-04T00:22:56;9.00;;;4.87;;
78871;SDS011;68247;43.514;1.502;2023-06-04T00:25:21;9.37;;;4.70;;
78871;SDS011;68247;43.514;1.502;2023-06-04T00:27:47;8.23;;;5.00;;
78871;SDS011;68247;43.514;1.502;2023-06-04T00:30:12;9.87;;;5.10;;
78871;SDS011;68247;43.514;1.502;2023-06-04T00:32:38;9.27;;;5.17;;
78871;SDS011;68247;43.514;1.502;2023-06-04T00:35:04;10.98;;;5.50;;
78871;SDS011;68247;43.514;1.502;2023-06-04T00:37:30;8.85;;;5.15;;
78871;SDS011;68247;43.514;1.502;2023-06-04T00:39:56;8.97;;;5.40;;
78871;SDS011;68247;43.514;1.502;2023-06-04T00:42:21;9.00;;;5.27;;
78871;SDS011;68247;43.514;1.502;2023-06-04T00:44:46;8.87;;;5.27;;
78871;SDS011;68247;43.514;1.502;2023-06-04T00:47:15;10.13;;;5.20;;
78871;SDS011;68247;43.514;1.502;2023-06-04T00:49:41;7.80;;;4.78;;
78871;SDS011;68247;43.514;1.502;2023-06-04T00:52:08;7.63;;;4.88;;
78871;SDS011;68247;43.514;1.502;2023-06-04T00:54:34;8.53;;;4.93;;
78871;SDS011;68247;43.514;1.502;2023-06-04T00:57:00;9.70;;;5.57;;
78871;SDS011;68247;43.514;1.502;2023-06-04T00:59:26;8.98;;;5.05;;
78871;SDS011;68247;43.514;1.502;2023-06-04T01:04:22;8.48;;;5.05;;
78871;SDS011;68247;43.514;1.502;2023-06-04T01:06:51;10.70;;;5.57;;
78871;SDS011;68247;43.514;1.502;2023-06-04T01:09:18;9.00;;;5.40;;
78871;SDS011;68247;43.514;1.502;2023-06-04T01:11:43;11.17;;;5.40;;
78871;SDS011;68247;43.514;1.502;2023-06-04T01:14:09;9.63;;;5.28;;
78871;SDS011;68247;43.514;1.502;2023-06-04T01:16:58;7.70;;;5.37;;
78871;SDS011;68247;43.514;1.502;2023-06-04T01:22:03;9.98;;;5.60;;
78871;SDS011;68247;43.514;1.502;2023-06-04T01:24:34;6.85;;;5.03;;
78871;SDS011;68247;43.514;1.502;2023-06-04T01:27:04;8.68;;;4.95;;
78871;SDS011;68247;43.514;1.502;2023-06-04T01:29:31;8.10;;;5.17;;
78871;SDS011;68247;43.514;1.502;2023-06-04T01:31:57;8.75;;;5.38;;
78871;SDS011;68247;43.514;1.502;2023-06-04T01:34:23;11.35;;;5.70;;
78871;SDS011;68247;43.514;1.502;2023-06-04T01:36:49;11.80;;;5.83;;
78871;SDS011;68247;43.514;1.502;2023-06-04T01:39:14;9.98;;;5.38;;
78871;SDS011;68247;43.514;1.502;2023-06-04T01:41:40;8.53;;;5.30;;
78871;SDS011;68247;43.514;1.502;2023-06-04T01:44:05;9.37;;;6.17;;
78871;SDS011;68247;43.514;1.502;2023-06-04T01:46:30;12.07;;;5.40;;
78871;SDS011;68247;43.514;1.502;2023-06-04T01:48:56;12.90;;;5.90;;
78871;SDS011;68247;43.514;1.502;2023-06-04T01:51:21;9.27;;;6.13;;
78871;SDS011;68247;43.514;1.502;2023-06-04T01:53:47;10.07;;;5.87;;
78871;SDS011;68247;43.514;1.502;2023-06-04T01:56:12;9.43;;;5.67;;
78871;SDS011;68247;43.514;1.502;2023-06-04T01:58:38;8.65;;;5.65;;
78871;SDS011;68247;43.514;1.502;2023-06-04T02:01:03;9.57;;;5.93;;
78871;SDS011;68247;43.514;1.502;2023-06-04T02:03:30;9.57;;;5.63;;
78871;SDS011;68247;43.514;1.502;2023-06-04T02:06:02;9.73;;;5.93;;
78871;SDS011;68247;43.514;1.502;2023-06-04T02:08:28;10.45;;;5.85;;
78871;SDS011;68247;43.514;1.502;2023-06-04T02:10:55;8.60;;;5.80;;
78871;SDS011;68247;43.514;1.502;2023-06-04T02:13:20;9.60;;;5.50;;
78871;SDS011;68247;43.514;1.502;2023-06-04T02:15:46;10.77;;;5.75;;
78871;SDS011;68247;43.514;1.502;2023-06-04T02:18:15;10.00;;;6.80;;
78871;SDS011;68247;43.514;1.502;2023-06-04T02:20:46;9.00;;;5.88;;
78871;SDS011;68247;43.514;1.502;2023-06-04T02:23:12;8.30;;;5.40;;
78871;SDS011;68247;43.514;1.502;2023-06-04T02:25:38;9.65;;;5.60;;
78871;SDS011;68247;43.514;1.502;2023-06-04T02:28:03;11.33;;;5.50;;
78871;SDS011;68247;43.514;1.502;2023-06-04T02:30:29;9.00;;;5.85;;
78871;SDS011;68247;43.514;1.502;2023-06-04T02:32:54;9.40;;;5.60;;
78871;SDS011;68247;43.514;1.502;2023-06-04T02:35:21;9.98;;;5.60;;
78871;SDS011;68247;43.514;1.502;2023-06-04T02:37:48;9.77;;;5.95;;
78871;SDS011;68247;43.514;1.502;2023-06-04T02:40:14;9.90;;;5.70;;
78871;SDS011;68247;43.514;1.502;2023-06-04T02:42:40;10.63;;;5.70;;
78871;SDS011;68247;43.514;1.502;2023-06-04T02:45:06;8.87;;;6.10;;
78871;SDS011;68247;43.514;1.502;2023-06-04T02:47:31;9.68;;;5.50;;
78871;SDS011;68247;43.514;1.502;2023-06-04T02:49:57;9.50;;;5.83;;
78871;SDS011;68247;43.514;1.502;2023-06-04T02:52:22;9.00;;;5.57;;
78871;SDS011;68247;43.514;1.502;2023-06-04T02:54:50;8.23;;;5.43;;
78871;SDS011;68247;43.514;1.502;2023-06-04T02:57:16;9.63;;;5.85;;
78871;SDS011;68247;43.514;1.502;2023-06-04T02:59:41;8.88;;;5.78;;
78871;SDS011;68247;43.514;1.502;2023-06-04T03:02:07;10.57;;;5.80;;
78871;SDS011;68247;43.514;1.502;2023-06-04T03:04:32;9.20;;;5.70;;
78871;SDS011;68247;43.514;1.502;2023-06-04T03:07:02;10.23;;;6.10;;
78871;SDS011;68247;43.514;1.502;2023-06-04T03:09:29;9.25;;;5.60;;
78871;SDS011;68247;43.514;1.502;2023-06-04T03:11:57;9.30;;;5.77;;
78871;SDS011;68247;43.514;1.502;2023-06-04T03:14:24;8.52;;;5.70;;
78871;SDS011;68247;43.514;1.502;2023-06-04T03:16:57;9.52;;;5.65;;
78871;SDS011;68247;43.514;1.502;2023-06-04T03:19:32;9.45;;;5.40;;
78871;SDS011;68247;43.514;1.502;2023-06-04T03:21:58;9.27;;;5.97;;
78871;SDS011;68247;43.514;1.502;2023-06-04T03:24:25;10.33;;;5.63;;
78871;SDS011;68247;43.514;1.502;2023-06-04T03:26:51;9.98;;;5.85;;
78871;SDS011;68247;43.514;1.502;2023-06-04T03:29:16;10.17;;;5.30;;
78871;SDS011;68247;43.514;1.502;2023-06-04T03:31:43;8.63;;;5.40;;
78871;SDS011;68247;43.514;1.502;2023-06-04T03:34:09;8.95;;;5.95;;
78871;SDS011;68247;43.514;1.502;2023-06-04T03:36:35;10.03;;;5.70;;
78871;SDS011;68247;43.514;1.502;2023-06-04T03:39:03;8.90;;;5.82;;
78871;SDS011;68247;43.514;1.502;2023-06-04T03:41:29;12.23;;;5.45;;
78871;SDS011;68247;43.514;1.502;2023-06-04T03:43:55;10.43;;;5.73;;
78871;SDS011;68247;43.514;1.502;2023-06-04T03:46:20;8.73;;;6.20;;
78871;SDS011;68247;43.514;1.502;2023-06-04T03:48:46;11.85;;;5.85;;
78871;SDS011;68247;43.514;1.502;2023-06-04T03:51:11;11.40;;;5.93;;
78871;SDS011;68247;43.514;1.502;2023-06-04T03:53:37;9.93;;;6.07;;
78871;SDS011;68247;43.514;1.502;2023-06-04T03:56:02;10.93;;;5.70;;
78871;SDS011;68247;43.514;1.502;2023-06-04T03:58:28;9.57;;;6.10;;
78871;SDS011;68247;43.514;1.502;2023-06-04T04:00:53;11.20;;;5.97;;
78871;SDS011;68247;43.514;1.502;2023-06-04T04:03:19;9.80;;;6.00;;
78871;SDS011;68247;43.514;1.502;2023-06-04T04:05:45;8.73;;;5.80;;
78871;SDS011;68247;43.514;1.502;2023-06-04T04:08:10;10.90;;;6.60;;
78871;SDS011;68247;43.514;1.502;2023-06-04T04:10:36;9.20;;;5.97;;
78871;SDS011;68247;43.514;1.502;2023-06-04T04:13:01;9.67;;;6.50;;
78871;SDS011;68247;43.514;1.502;2023-06-04T04:15:26;11.10;;;6.57;;
78871;SDS011;68247;43.514;1.502;2023-06-04T04:17:52;11.60;;;6.65;;
78871;SDS011;68247;43.514;1.502;2023-06-04T04:20:18;11.60;;;6.93;;
78871;SDS011;68247;43.514;1.502;2023-06-04T04:22:43;10.93;;;5.75;;
78871;SDS011;68247;43.514;1.502;2023-06-04T04:25:09;11.43;;;6.40;;
78871;SDS011;68247;43.514;1.502;2023-06-04T04:27:34;13.37;;;6.30;;
78871;SDS011;68247;43.514;1.502;2023-06-04T04:30:04;9.27;;;5.88;;
78871;SDS011;68247;43.514;1.502;2023-06-04T04:32:30;12.90;;;7.00;;
78871;SDS011;68247;43.514;1.502;2023-06-04T04:34:56;17.27;;;6.70;;
78871;SDS011;68247;43.514;1.502;2023-06-04T04:37:22;13.20;;;6.97;;
78871;SDS011;68247;43.514;1.502;2023-06-04T04:39:47;12.53;;;7.40;;
78871;SDS011;68247;43.514;1.502;2023-06-04T04:42:16;11.38;;;7.43;;
78871;SDS011;68247;43.514;1.502;2023-06-04T04:44:43;10.88;;;6.93;;
78871;SDS011;68247;43.514;1.502;2023-06-04T04:47:12;13.85;;;7.53;;
78871;SDS011;68247;43.514;1.502;2023-06-04T04:49:38;15.27;;;7.40;;
78871;SDS011;68247;43.514;1.502;2023-06-04T04:52:03;13.57;;;7.00;;
78871;SDS011;68247;43.514;1.502;2023-06-04T04:54:29;13.47;;;7.53;;
78871;SDS011;68247;43.514;1.502;2023-06-04T04:56:54;12.80;;;7.93;;
78871;SDS011;68247;43.514;1.502;2023-06-04T04:59:20;14.77;;;7.77;;
78871;SDS011;68247;43.514;1.502;2023-06-04T05:01:45;14.73;;;7.97;;
78871;SDS011;68247;43.514;1.502;2023-06-04T05:04:11;12.50;;;7.87;;
78871;SDS011;68247;43.514;1.502;2023-06-04T05:06:37;12.37;;;7.20;;
78871;SDS011;68247;43.514;1.502;2023-06-04T05:09:02;11.52;;;7.03;;
78871;SDS011;68247;43.514;1.502;2023-06-04T05:11:28;12.15;;;7.18;;
78871;SDS011;68247;43.514;1.502;2023-06-04T05:13:54;12.07;;;7.60;;
78871;SDS011;68247;43.514;1.502;2023-06-04T05:16:20;11.60;;;7.25;;
78871;SDS011;68247;43.514;1.502;2023-06-04T05:18:47;11.17;;;7.30;;
78871;SDS011;68247;43.514;1.502;2023-06-04T05:21:16;18.83;;;8.00;;
78871;SDS011;68247;43.514;1.502;2023-06-04T05:23:43;11.07;;;7.05;;
78871;SDS011;68247;43.514;1.502;2023-06-04T05:26:10;10.50;;;6.57;;
78871;SDS011;68247;43.514;1.502;2023-06-04T05:28:35;9.50;;;6.03;;
78871;SDS011;68247;43.514;1.502;2023-06-04T05:31:01;10.27;;;6.37;;
78871;SDS011;68247;43.514;1.502;2023-06-04T05:33:26;11.88;;;6.32;;
78871;SDS011;68247;43.514;1.502;2023-06-04T05:35:52;11.03;;;6.60;;
78871;SDS011;68247;43.514;1.502;2023-06-04T05:38:19;10.00;;;6.25;;
78871;SDS011;68247;43.514;1.502;2023-06-04T05:40:45;8.55;;;6.20;;
78871;SDS011;68247;43.514;1.502;2023-06-04T05:43:11;11.30;;;6.13;;
78871;SDS011;68247;43.514;1.502;2023-06-04T05:45:36;11.00;;;6.60;;
78871;SDS011;68247;43.514;1.502;2023-06-04T05:48:02;10.40;;;6.47;;
78871;SDS011;68247;43.514;1.502;2023-06-04T05:50:28;11.50;;;6.55;;
78871;SDS011;68247;43.514;1.502;2023-06-04T05:52:53;10.53;;;6.23;;
78871;SDS011;68247;43.514;1.502;2023-06-04T05:55:19;9.00;;;6.17;;
78871;SDS011;68247;43.514;1.502;2023-06-04T05:57:44;9.80;;;6.00;;
78871;SDS011;68247;43.514;1.502;2023-06-04T06:00:10;12.27;;;7.20;;
78871;SDS011;68247;43.514;1.502;2023-06-04T06:02:36;11.50;;;6.70;;
78871;SDS011;68247;43.514;1.502;2023-06-04T06:05:03;11.83;;;7.00;;
78871;SDS011;68247;43.514;1.502;2023-06-04T06:07:30;9.77;;;6.63;;
78871;SDS011;68247;43.514;1.502;2023-06-04T06:09:56;9.57;;;6.37;;
78871;SDS011;68247;43.514;1.502;2023-06-04T06:12:21;11.00;;;6.88;;
78871;SDS011;68247;43.514;1.502;2023-06-04T06:14:46;12.20;;;6.83;;
78871;SDS011;68247;43.514;1.502;2023-06-04T06:17:13;11.32;;;7.07;;
78871;SDS011;68247;43.514;1.502;2023-06-04T06:19:38;10.10;;;6.33;;
78871;SDS011;68247;43.514;1.502;2023-06-04T06:22:04;9.70;;;6.87;;
78871;SDS011;68247;43.514;1.502;2023-06-04T06:24:29;8.80;;;6.30;;
78871;SDS011;68247;43.514;1.502;2023-06-04T06:26:55;11.00;;;6.17;;
78871;SDS011;68247;43.514;1.502;2023-06-04T06:29:20;8.27;;;6.10;;
78871;SDS011;68247;43.514;1.502;2023-06-04T06:31:46;10.53;;;6.50;;
78871;SDS011;68247;43.514;1.502;2023-06-04T06:34:12;9.00;;;6.80;;
78871;SDS011;68247;43.514;1.502;2023-06-04T06:36:37;9.17;;;6.43;;
78871;SDS011;68247;43.514;1.502;2023-06-04T06:39:03;10.32;;;6.45;;
78871;SDS011;68247;43.514;1.502;2023-06-04T06:41:28;11.30;;;6.40;;
78871;SDS011;68247;43.514;1.502;2023-06-04T06:43:55;9.60;;;6.22;;
78871;SDS011;68247;43.514;1.502;2023-06-04T06:46:22;12.52;;;7.10;;
78871;SDS011;68247;43.514;1.502;2023-06-04T06:48:47;10.37;;;6.33;;
78871;SDS011;68247;43.514;1.502;2023-06-04T06:51:13;8.88;;;6.28;;
78871;SDS011;68247;43.514;1.502;2023-06-04T06:53:39;10.30;;;6.17;;
78871;SDS011;68247;43.514;1.502;2023-06-04T06:56:05;10.43;;;6.10;;
78871;SDS011;68247;43.514;1.502;2023-06-04T06:58:31;9.82;;;5.80;;
78871;SDS011;68247;43.514;1.502;2023-06-04T07:00:56;10.70;;;6.17;;
78871;SDS011;68247;43.514;1.502;2023-06-04T07:03:21;9.47;;;5.33;;
78871;SDS011;68247;43.514;1.502;2023-06-04T07:05:47;8.90;;;5.40;;
78871;SDS011;68247;43.514;1.502;2023-06-04T07:08:13;8.18;;;5.05;;
78871;SDS011;68247;43.514;1.502;2023-06-04T07:10:39;7.63;;;4.80;;
78871;SDS011;68247;43.514;1.502;2023-06-04T07:13:04;8.63;;;4.72;;
78871;SDS011;68247;43.514;1.502;2023-06-04T07:15:30;7.03;;;4.97;;
78871;SDS011;68247;43.514;1.502;2023-06-04T07:17:55;7.17;;;4.73;;
78871;SDS011;68247;43.514;1.502;2023-06-04T07:20:20;7.27;;;5.00;;
78871;SDS011;68247;43.514;1.502;2023-06-04T07:22:46;9.48;;;4.70;;
78871;SDS011;68247;43.514;1.502;2023-06-04T07:25:12;7.07;;;4.57;;
78871;SDS011;68247;43.514;1.502;2023-06-04T07:27:37;6.33;;;4.20;;
78871;SDS011;68247;43.514;1.502;2023-06-04T07:30:03;6.43;;;4.50;;
78871;SDS011;68247;43.514;1.502;2023-06-04T07:32:29;8.80;;;4.38;;
78871;SDS011;68247;43.514;1.502;2023-06-04T07:34:54;6.47;;;4.00;;
78871;SDS011;68247;43.514;1.502;2023-06-04T07:37:20;8.03;;;4.00;;
78871;SDS011;68247;43.514;1.502;2023-06-04T07:39:45;6.37;;;4.07;;
78871;SDS011;68247;43.514;1.502;2023-06-04T07:42:10;6.87;;;4.40;;
78871;SDS011;68247;43.514;1.502;2023-06-04T07:44:36;7.82;;;4.78;;
78871;SDS011;68247;43.514;1.502;2023-06-04T07:47:03;7.07;;;4.20;;
78871;SDS011;68247;43.514;1.502;2023-06-04T07:49:28;7.32;;;4.22;;
78871;SDS011;68247;43.514;1.502;2023-06-04T07:51:54;5.73;;;3.87;;
78871;SDS011;68247;43.514;1.502;2023-06-04T07:54:19;7.27;;;4.30;;
78871;SDS011;68247;43.514;1.502;2023-06-04T07:56:45;6.75;;;3.92;;
78871;SDS011;68247;43.514;1.502;2023-06-04T07:59:11;6.10;;;4.00;;
78871;SDS011;68247;43.514;1.502;2023-06-04T08:01:36;6.07;;;3.70;;
78871;SDS011;68247;43.514;1.502;2023-06-04T08:04:02;7.50;;;4.32;;
78871;SDS011;68247;43.514;1.502;2023-06-04T08:06:27;5.90;;;4.27;;
78871;SDS011;68247;43.514;1.502;2023-06-04T08:08:53;6.77;;;4.10;;
78871;SDS011;68247;43.514;1.502;2023-06-04T08:11:18;7.07;;;4.10;;
78871;SDS011;68247;43.514;1.502;2023-06-04T08:13:44;6.50;;;4.07;;
78871;SDS011;68247;43.514;1.502;2023-06-04T08:16:09;5.87;;;3.93;;
78871;SDS011;68247;43.514;1.502;2023-06-04T08:18:38;7.93;;;4.15;;
78871;SDS011;68247;43.514;1.502;2023-06-04T08:21:04;7.78;;;4.18;;
78871;SDS011;68247;43.514;1.502;2023-06-04T08:23:31;6.45;;;4.25;;
78871;SDS011;68247;43.514;1.502;2023-06-04T08:25:56;5.60;;;4.23;;
78871;SDS011;68247;43.514;1.502;2023-06-04T08:28:23;7.07;;;4.15;;
78871;SDS011;68247;43.514;1.502;2023-06-04T08:30:49;6.03;;;3.63;;
78871;SDS011;68247;43.514;1.502;2023-06-04T08:33:15;7.03;;;4.37;;
78871;SDS011;68247;43.514;1.502;2023-06-04T08:35:40;4.60;;;3.73;;
78871;SDS011;68247;43.514;1.502;2023-06-04T08:38:05;8.20;;;4.30;;
78871;SDS011;68247;43.514;1.502;2023-06-04T08:40:31;7.20;;;4.43;;
78871;SDS011;68247;43.514;1.502;2023-06-04T08:42:56;5.60;;;4.17;;
78871;SDS011;68247;43.514;1.502;2023-06-04T08:45:25;6.00;;;3.95;;
78871;SDS011;68247;43.514;1.502;2023-06-04T08:47:51;7.70;;;4.43;;
78871;SDS011;68247;43.514;1.502;2023-06-04T08:50:17;7.97;;;4.40;;
78871;SDS011;68247;43.514;1.502;2023-06-04T08:52:44;5.63;;;4.20;;
78871;SDS011;68247;43.514;1.502;2023-06-04T08:55:10;5.40;;;4.53;;
78871;SDS011;68247;43.514;1.502;2023-06-04T08:57:38;5.38;;;3.95;;
78871;SDS011;68247;43.514;1.502;2023-06-04T09:00:04;7.90;;;4.30;;
78871;SDS011;68247;43.514;1.502;2023-06-04T09:02:37;7.43;;;4.55;;
78871;SDS011;68247;43.514;1.502;2023-06-04T09:05:05;5.97;;;4.13;;
78871;SDS011;68247;43.514;1.502;2023-06-04T09:07:35;5.97;;;3.87;;
78871;SDS011;68247;43.514;1.502;2023-06-04T09:10:04;6.88;;;4.10;;
78871;SDS011;68247;43.514;1.502;2023-06-04T09:12:30;6.15;;;3.80;;
78871;SDS011;68247;43.514;1.502;2023-06-04T09:14:56;6.55;;;4.00;;
78871;SDS011;68247;43.514;1.502;2023-06-04T09:17:24;6.03;;;3.87;;
78871;SDS011;68247;43.514;1.502;2023-06-04T09:19:50;8.00;;;4.88;;
78871;SDS011;68247;43.514;1.502;2023-06-04T09:22:16;7.90;;;4.70;;
78871;SDS011;68247;43.514;1.502;2023-06-04T09:24:45;7.33;;;4.60;;
78871;SDS011;68247;43.514;1.502;2023-06-04T09:27:13;6.05;;;3.90;;
78871;SDS011;68247;43.514;1.502;2023-06-04T09:29:39;6.63;;;3.90;;
78871;SDS011;68247;43.514;1.502;2023-06-04T09:32:05;6.10;;;3.60;;
78871;SDS011;68247;43.514;1.502;2023-06-04T09:34:31;5.73;;;3.97;;
78871;SDS011;68247;43.514;1.502;2023-06-04T09:36:57;5.93;;;3.90;;
78871;SDS011;68247;43.514;1.502;2023-06-04T09:39:23;5.78;;;3.90;;
78871;SDS011;68247;43.514;1.502;2023-06-04T09:41:58;5.93;;;4.10;;
78871;SDS011;68247;43.514;1.502;2023-06-04T09:44:27;6.47;;;4.18;;
78871;SDS011;68247;43.514;1.502;2023-06-04T09:46:57;6.38;;;4.05;;
78871;SDS011;68247;43.514;1.502;2023-06-04T09:49:23;7.13;;;3.75;;
78871;SDS011;68247;43.514;1.502;2023-06-04T09:51:49;6.07;;;3.65;;
78871;SDS011;68247;43.514;1.502;2023-06-04T09:54:15;6.07;;;3.40;;
78871;SDS011;68247;43.514;1.502;2023-06-04T09:56:41;5.20;;;3.42;;
78871;SDS011;68247;43.514;1.502;2023-06-04T09:59:08;6.30;;;3.50;;
78871;SDS011;68247;43.514;1.502;2023-06-04T10:01:35;6.90;;;3.60;;
78871;SDS011;68247;43.514;1.502;2023-06-04T10:04:04;5.93;;;3.70;;
78871;SDS011;68247;43.514;1.502;2023-06-04T10:06:33;5.07;;;3.42;;
78871;SDS011;68247;43.514;1.502;2023-06-04T10:09:03;5.28;;;3.30;;
78871;SDS011;68247;43.514;1.502;2023-06-04T10:11:36;4.93;;;3.10;;
78871;SDS011;68247;43.514;1.502;2023-06-04T10:14:03;4.80;;;3.00;;
78871;SDS011;68247;43.514;1.502;2023-06-04T10:16:50;5.55;;;3.25;;
78871;SDS011;68247;43.514;1.502;2023-06-04T10:19:16;5.50;;;3.50;;
78871;SDS011;68247;43.514;1.502;2023-06-04T10:21:43;5.15;;;3.05;;
78871;SDS011;68247;43.514;1.502;2023-06-04T10:24:08;6.47;;;3.70;;
78871;SDS011;68247;43.514;1.502;2023-06-04T10:26:34;5.73;;;3.50;;
78871;SDS011;68247;43.514;1.502;2023-06-04T10:29:03;6.03;;;3.50;;
78871;SDS011;68247;43.514;1.502;2023-06-04T10:31:29;5.70;;;3.20;;
78871;SDS011;68247;43.514;1.502;2023-06-04T10:33:55;4.60;;;3.20;;
78871;SDS011;68247;43.514;1.502;2023-06-04T10:36:22;5.37;;;3.50;;
78871;SDS011;68247;43.514;1.502;2023-06-04T10:38:51;4.28;;;2.75;;
78871;SDS011;68247;43.514;1.502;2023-06-04T10:41:18;4.03;;;2.88;;
78871;SDS011;68247;43.514;1.502;2023-06-04T10:43:44;5.35;;;3.10;;
78871;SDS011;68247;43.514;1.502;2023-06-04T10:46:11;7.22;;;3.17;;
78871;SDS011;68247;43.514;1.502;2023-06-04T10:48:59;4.77;;;3.20;;
78871;SDS011;68247;43.514;1.502;2023-06-04T10:51:33;4.65;;;2.92;;
78871;SDS011;68247;43.514;1.502;2023-06-04T10:54:00;9.02;;;4.93;;
78871;SDS011;68247;43.514;1.502;2023-06-04T10:58:57;4.93;;;3.05;;
78871;SDS011;68247;43.514;1.502;2023-06-04T11:01:24;4.60;;;2.73;;
78871;SDS011;68247;43.514;1.502;2023-06-04T11:03:50;4.75;;;2.80;;
78871;SDS011;68247;43.514;1.502;2023-06-04T11:06:17;4.97;;;3.00;;
78871;SDS011;68247;43.514;1.502;2023-06-04T11:08:43;4.25;;;3.05;;
78871;SDS011;68247;43.514;1.502;2023-06-04T11:11:12;4.28;;;2.67;;
78871;SDS011;68247;43.514;1.502;2023-06-04T11:13:39;4.97;;;2.70;;
78871;SDS011;68247;43.514;1.502;2023-06-04T11:16:18;5.68;;;2.92;;
78871;SDS011;68247;43.514;1.502;2023-06-04T11:18:53;4.78;;;2.95;;
78871;SDS011;68247;43.514;1.502;2023-06-04T11:21:19;5.88;;;2.90;;
78871;SDS011;68247;43.514;1.502;2023-06-04T11:23:44;5.27;;;2.90;;
78871;SDS011;68247;43.514;1.502;2023-06-04T11:26:10;3.97;;;2.50;;
78871;SDS011;68247;43.514;1.502;2023-06-04T11:28:35;4.75;;;2.38;;
78871;SDS011;68247;43.514;1.502;2023-06-04T11:31:01;3.13;;;2.17;;
78871;SDS011;68247;43.514;1.502;2023-06-04T11:33:28;4.82;;;2.40;;
78871;SDS011;68247;43.514;1.502;2023-06-04T11:35:54;4.05;;;2.30;;
78871;SDS011;68247;43.514;1.502;2023-06-04T11:38:20;4.23;;;2.30;;
78871;SDS011;68247;43.514;1.502;2023-06-04T11:41:01;3.90;;;2.47;;
78871;SDS011;68247;43.514;1.502;2023-06-04T11:43:27;4.05;;;2.65;;
78871;SDS011;68247;43.514;1.502;2023-06-04T11:45:53;4.03;;;2.30;;
78871;SDS011;68247;43.514;1.502;2023-06-04T11:48:20;4.65;;;2.70;;
78871;SDS011;68247;43.514;1.502;2023-06-04T11:50:45;5.20;;;2.53;;
78871;SDS011;68247;43.514;1.502;2023-06-04T11:53:11;4.77;;;2.53;;
78871;SDS011;68247;43.514;1.502;2023-06-04T11:55:37;3.97;;;2.63;;
78871;SDS011;68247;43.514;1.502;2023-06-04T11:58:03;3.93;;;2.53;;
78871;SDS011;68247;43.514;1.502;2023-06-04T12:00:29;3.92;;;2.53;;
78871;SDS011;68247;43.514;1.502;2023-06-04T12:02:55;4.40;;;2.63;;
78871;SDS011;68247;43.514;1.502;2023-06-04T12:05:22;3.73;;;2.40;;
78871;SDS011;68247;43.514;1.502;2023-06-04T12:07:49;3.88;;;2.60;;
78871;SDS011;68247;43.514;1.502;2023-06-04T12:10:19;3.72;;;2.28;;
78871;SDS011;68247;43.514;1.502;2023-06-04T12:12:45;3.40;;;2.50;;
78871;SDS011;68247;43.514;1.502;2023-06-04T12:15:11;4.10;;;2.90;;
78871;SDS011;68247;43.514;1.502;2023-06-04T12:17:48;4.17;;;2.80;;
78871;SDS011;68247;43.514;1.502;2023-06-04T12:20:38;5.53;;;3.78;;
78871;SDS011;68247;43.514;1.502;2023-06-04T12:23:06;4.68;;;2.85;;
78871;SDS011;68247;43.514;1.502;2023-06-04T12:25:32;4.38;;;2.60;;
78871;SDS011;68247;43.514;1.502;2023-06-04T12:27:59;3.70;;;2.55;;
78871;SDS011;68247;43.514;1.502;2023-06-04T12:30:45;4.43;;;2.67;;
78871;SDS011;68247;43.514;1.502;2023-06-04T12:33:10;4.15;;;2.50;;
78871;SDS011;68247;43.514;1.502;2023-06-04T12:35:36;4.03;;;2.60;;
78871;SDS011;68247;43.514;1.502;2023-06-04T12:38:05;3.95;;;2.50;;
78871;SDS011;68247;43.514;1.502;2023-06-04T12:40:30;3.50;;;2.50;;
78871;SDS011;68247;43.514;1.502;2023-06-04T12:42:56;4.20;;;2.10;;
78871;SDS011;68247;43.514;1.502;2023-06-04T12:45:21;5.10;;;2.83;;
78871;SDS011;68247;43.514;1.502;2023-06-04T12:47:46;3.50;;;2.27;;
78871;SDS011;68247;43.514;1.502;2023-06-04T12:50:12;3.30;;;2.60;;
78871;SDS011;68247;43.514;1.502;2023-06-04T12:52:38;4.13;;;2.70;;
78871;SDS011;68247;43.514;1.502;2023-06-04T12:55:03;3.40;;;2.60;;
78871;SDS011;68247;43.514;1.502;2023-06-04T12:57:29;4.30;;;2.58;;
78871;SDS011;68247;43.514;1.502;2023-06-04T12:59:55;4.50;;;2.60;;
78871;SDS011;68247;43.514;1.502;2023-06-04T13:02:21;4.53;;;2.70;;
78871;SDS011;68247;43.514;1.502;2023-06-04T13:04:47;3.87;;;2.40;;
78871;SDS011;68247;43.514;1.502;2023-06-04T13:07:18;3.47;;;2.58;;
78871;SDS011;68247;43.514;1.502;2023-06-04T13:09:43;3.67;;;2.47;;
78871;SDS011;68247;43.514;1.502;2023-06-04T13:12:08;3.57;;;2.60;;
78871;SDS011;68247;43.514;1.502;2023-06-04T13:14:34;3.97;;;2.43;;
78871;SDS011;68247;43.514;1.502;2023-06-04T13:17:00;4.17;;;2.60;;
78871;SDS011;68247;43.514;1.502;2023-06-04T13:19:25;3.80;;;2.78;;
78871;SDS011;68247;43.514;1.502;2023-06-04T13:21:51;3.47;;;2.70;;
78871;SDS011;68247;43.514;1.502;2023-06-04T13:24:16;4.50;;;2.63;;
78871;SDS011;68247;43.514;1.502;2023-06-04T13:26:42;3.60;;;2.40;;
78871;SDS011;68247;43.514;1.502;2023-06-04T13:29:07;3.50;;;2.50;;
78871;SDS011;68247;43.514;1.502;2023-06-04T13:31:33;3.63;;;2.60;;
78871;SDS011;68247;43.514;1.502;2023-06-04T13:33:58;4.17;;;2.97;;
78871;SDS011;68247;43.514;1.502;2023-06-04T13:36:23;4.18;;;2.95;;
78871;SDS011;68247;43.514;1.502;2023-06-04T13:38:49;4.70;;;2.87;;
78871;SDS011;68247;43.514;1.502;2023-06-04T13:41:17;3.85;;;2.50;;
78871;SDS011;68247;43.514;1.502;2023-06-04T13:43:43;3.97;;;2.90;;
78871;SDS011;68247;43.514;1.502;2023-06-04T13:46:08;4.47;;;2.83;;
78871;SDS011;68247;43.514;1.502;2023-06-04T13:48:34;3.58;;;2.20;;
78871;SDS011;68247;43.514;1.502;2023-06-04T13:50:59;3.93;;;2.20;;
78871;SDS011;68247;43.514;1.502;2023-06-04T13:53:25;2.90;;;2.03;;
78871;SDS011;68247;43.514;1.502;2023-06-04T13:55:50;3.55;;;2.40;;
78871;SDS011;68247;43.514;1.502;2023-06-04T13:58:22;3.67;;;2.50;;
78871;SDS011;68247;43.514;1.502;2023-06-04T14:00:47;3.58;;;2.58;;
78871;SDS011;68247;43.514;1.502;2023-06-04T14:03:13;3.70;;;2.40;;
78871;SDS011;68247;43.514;1.502;2023-06-04T14:05:38;3.70;;;2.60;;
78871;SDS011;68247;43.514;1.502;2023-06-04T14:08:04;3.50;;;2.40;;
78871;SDS011;68247;43.514;1.502;2023-06-04T14:10:29;4.72;;;2.83;;
78871;SDS011;68247;43.514;1.502;2023-06-04T14:12:55;4.60;;;2.60;;
78871;SDS011;68247;43.514;1.502;2023-06-04T14:15:20;3.20;;;2.20;;
78871;SDS011;68247;43.514;1.502;2023-06-04T14:17:47;3.92;;;2.20;;
78871;SDS011;68247;43.514;1.502;2023-06-04T14:20:12;3.50;;;2.10;;
78871;SDS011;68247;43.514;1.502;2023-06-04T14:22:38;3.40;;;2.00;;
78871;SDS011;68247;43.514;1.502;2023-06-04T14:25:06;4.07;;;2.30;;
78871;SDS011;68247;43.514;1.502;2023-06-04T14:27:33;3.53;;;1.92;;
78871;SDS011;68247;43.514;1.502;2023-06-04T14:29:59;5.87;;;4.67;;
78871;SDS011;68247;43.514;1.502;2023-06-04T14:32:25;5.60;;;4.32;;
78871;SDS011;68247;43.514;1.502;2023-06-04T14:34:52;4.78;;;2.90;;
78871;SDS011;68247;43.514;1.502;2023-06-04T14:37:17;4.10;;;2.57;;
78871;SDS011;68247;43.514;1.502;2023-06-04T14:39:46;6.10;;;3.20;;
78871;SDS011;68247;43.514;1.502;2023-06-04T14:42:12;3.63;;;2.30;;
78871;SDS011;68247;43.514;1.502;2023-06-04T14:44:38;4.28;;;2.60;;
78871;SDS011;68247;43.514;1.502;2023-06-04T14:47:04;6.93;;;4.60;;
78871;SDS011;68247;43.514;1.502;2023-06-04T14:49:30;11.25;;;6.63;;